createdAt,value
2018-02-20T00:00:44.956Z,75.80
2018-02-20T00:03:11.922Z,75.70
2018-02-20T00:05:38.859Z,75.50
2018-02-20T00:08:05.704Z,75.60
2018-02-20T00:10:32.568Z,76.00
2018-02-20T00:12:59.427Z,75.90
2018-02-20T00:15:26.300Z,75.60
2018-02-20T00:17:53.266Z,75.40
2018-02-20T00:20:20.119Z,75.20
2018-02-20T00:22:46.971Z,75.40
2018-02-20T00:25:13.922Z,75.60
2018-02-20T00:27:40.887Z,75.70
2018-02-20T00:30:07.731Z,75.30
2018-02-20T00:32:34.607Z,75.60
2018-02-20T00:35:01.444Z,75.80
2018-02-20T00:37:28.321Z,75.90
2018-02-20T00:39:55.190Z,76.10
2018-02-20T00:42:22.031Z,76.00
2018-02-20T00:44:48.972Z,76.10
2018-02-20T00:47:15.819Z,76.20
2018-02-20T00:49:42.687Z,76.10
2018-02-20T00:52:09.553Z,76.50
2018-02-20T00:54:36.506Z,76.40
2018-02-20T00:57:03.356Z,76.10
2018-02-20T00:59:30.326Z,76.70
2018-02-20T01:01:57.481Z,76.20
2018-02-20T01:04:24.747Z,76.20
2018-02-20T01:06:51.611Z,76.20
2018-02-20T01:09:18.572Z,76.10
2018-02-20T01:11:45.449Z,75.50
2018-02-20T01:14:12.298Z,75.40
2018-02-20T01:16:39.159Z,75.50
2018-02-20T01:19:06.096Z,75.40
2018-02-20T01:21:32.970Z,75.90
2018-02-20T01:23:59.810Z,75.80
2018-02-20T01:26:26.668Z,75.70
2018-02-20T01:28:53.523Z,76.00
2018-02-20T01:31:20.377Z,75.30
2018-02-20T01:33:47.247Z,75.50
2018-02-20T01:36:14.192Z,75.40
2018-02-20T01:38:41.134Z,75.70
2018-02-20T01:41:07.976Z,75.20
2018-02-20T01:43:35.219Z,75.50
2018-02-20T01:46:02.100Z,75.50
2018-02-20T01:48:29.504Z,75.50
2018-02-20T01:51:07.422Z,75.50
2018-02-20T01:53:34.380Z,75.50
2018-02-20T01:56:01.220Z,75.80
2018-02-20T01:58:28.100Z,75.80
2018-02-20T02:00:54.943Z,75.70
2018-02-20T02:03:22.004Z,75.80
2018-02-20T02:05:49.218Z,75.60
2018-02-20T02:08:16.134Z,75.60
2018-02-20T02:10:43.009Z,75.60
2018-02-20T02:13:09.960Z,75.60
2018-02-20T02:15:36.827Z,75.20
2018-02-20T02:18:03.676Z,75.00
2018-02-20T02:20:30.520Z,74.80
2018-02-20T02:22:57.388Z,74.50
2018-02-20T02:25:24.331Z,74.30
2018-02-20T02:27:51.603Z,74.40
2018-02-20T02:30:18.476Z,74.40
2018-02-20T02:32:45.385Z,74.40
2018-02-20T02:35:12.634Z,74.60
2018-02-20T02:37:39.534Z,74.60
2018-02-20T02:40:06.391Z,75.10
2018-02-20T02:42:33.284Z,75.20
2018-02-20T02:45:00.144Z,75.40
2018-02-20T02:47:27.012Z,75.60
2018-02-20T02:49:53.943Z,75.40
2018-02-20T02:52:20.898Z,75.00
2018-02-20T02:54:47.754Z,75.00
2018-02-20T02:57:14.704Z,75.10
2018-02-20T02:59:41.605Z,75.30
2018-02-20T03:02:08.471Z,75.20
2018-02-20T03:04:35.316Z,75.00
2018-02-20T03:07:02.176Z,75.00
2018-02-20T03:09:29.206Z,75.40
2018-02-20T03:11:56.052Z,75.70
2018-02-20T03:14:22.999Z,75.80
2018-02-20T03:16:49.837Z,76.10
2018-02-20T03:19:16.752Z,76.00
2018-02-20T03:21:43.599Z,76.00
2018-02-20T03:24:10.543Z,75.90
2018-02-20T03:26:37.408Z,75.90
2018-02-20T03:29:04.260Z,75.80
2018-02-20T03:31:31.142Z,76.00
2018-02-20T03:33:57.991Z,76.00
2018-02-20T03:36:24.851Z,76.00
2018-02-20T03:38:51.713Z,76.10
2018-02-20T03:41:18.652Z,75.90
2018-02-20T03:43:45.515Z,76.10
2018-02-20T03:46:12.458Z,76.10
2018-02-20T03:48:39.320Z,76.10
2018-02-20T03:51:06.180Z,76.10
2018-02-20T03:53:33.045Z,76.30
2018-02-20T03:55:59.902Z,76.70
2018-02-20T03:58:26.768Z,76.50
2018-02-20T04:00:53.629Z,76.30
2018-02-20T04:03:20.576Z,76.50
2018-02-20T04:05:47.429Z,76.70
2018-02-20T04:08:14.309Z,76.60
2018-02-20T04:10:41.163Z,76.80
2018-02-20T04:13:08.015Z,76.80
2018-02-20T04:15:34.875Z,76.50
2018-02-20T04:18:01.747Z,76.50
2018-02-20T04:20:28.596Z,76.70
2018-02-20T04:22:55.528Z,76.80
2018-02-20T04:25:22.394Z,76.80
2018-02-20T04:27:49.346Z,76.50
2018-02-20T04:30:16.303Z,76.40
2018-02-20T04:32:43.169Z,76.40
2018-02-20T04:35:10.096Z,76.80
2018-02-20T04:37:37.359Z,76.60
2018-02-20T04:40:04.630Z,76.80
2018-02-20T04:42:31.515Z,76.80
2018-02-20T04:44:58.494Z,77.10
2018-02-20T04:47:25.433Z,76.90
2018-02-20T04:49:52.481Z,76.80
2018-02-20T04:52:19.324Z,77.00
2018-02-20T04:54:46.214Z,76.80
2018-02-20T04:57:13.085Z,76.80
2018-02-20T04:59:39.932Z,76.70
2018-02-20T05:02:06.882Z,76.70
2018-02-20T05:04:33.730Z,76.90
2018-02-20T05:07:00.704Z,76.90
2018-02-20T05:09:27.580Z,77.50
2018-02-20T05:11:54.525Z,77.50
2018-02-20T05:14:21.394Z,77.50
2018-02-20T05:16:48.341Z,77.60
2018-02-20T05:19:15.286Z,77.50
2018-02-20T05:21:42.164Z,77.70
2018-02-20T05:24:09.012Z,77.80
2018-02-20T05:26:36.048Z,77.90
2018-02-20T05:29:03.034Z,77.80
2018-02-20T05:31:29.901Z,77.60
2018-02-20T05:33:56.746Z,78.00
2018-02-20T05:36:23.699Z,78.20
2018-02-20T05:38:50.553Z,78.80
2018-02-20T05:41:17.517Z,79.00
2018-02-20T05:43:44.380Z,79.00
2018-02-20T05:46:11.240Z,79.10
2018-02-20T05:48:38.221Z,79.00
2018-02-20T05:51:05.146Z,78.90
2018-02-20T05:53:32.103Z,79.20
2018-02-20T05:55:58.981Z,79.60
2018-02-20T05:58:25.843Z,79.40
2018-02-20T06:00:52.745Z,79.50
2018-02-20T06:03:20.054Z,79.10
2018-02-20T06:05:46.967Z,79.10
2018-02-20T06:08:14.321Z,79.20
2018-02-20T06:10:41.366Z,79.20
2018-02-20T06:13:08.225Z,79.30
2018-02-20T06:15:35.263Z,79.30
2018-02-20T06:18:02.135Z,79.40
2018-02-20T06:20:29.007Z,79.20
2018-02-20T06:22:55.933Z,79.20
2018-02-20T06:25:22.882Z,79.20
2018-02-20T06:27:49.752Z,79.00
2018-02-20T06:30:16.726Z,78.70
2018-02-20T06:32:43.608Z,78.50
2018-02-20T06:35:10.875Z,78.30
2018-02-20T06:37:38.185Z,78.20
2018-02-20T06:40:05.041Z,78.20
2018-02-20T06:42:32.003Z,78.20
2018-02-20T06:44:58.864Z,77.90
2018-02-20T06:47:26.038Z,78.10
2018-02-20T06:49:52.919Z,78.00
2018-02-20T06:52:19.927Z,78.10
2018-02-20T06:54:46.862Z,77.60
2018-02-20T06:57:14.217Z,77.40
2018-02-20T06:59:41.504Z,77.50
2018-02-20T07:02:08.797Z,77.30
2018-02-20T07:04:35.754Z,77.30
2018-02-20T07:07:02.606Z,77.10
2018-02-20T07:09:29.476Z,77.00
2018-02-20T07:11:56.335Z,77.10
2018-02-20T07:14:23.182Z,76.90
2018-02-20T07:16:50.067Z,76.90
2018-02-20T07:19:16.983Z,76.50
2018-02-20T07:21:43.877Z,76.20
2018-02-20T07:24:10.822Z,76.20
2018-02-20T07:26:37.665Z,76.20
2018-02-20T07:29:04.533Z,76.30
2018-02-20T07:31:31.461Z,76.00
2018-02-20T07:33:58.437Z,75.70
2018-02-20T07:36:25.444Z,75.40
2018-02-20T07:38:52.270Z,74.80
2018-02-20T07:41:19.117Z,74.70
2018-02-20T07:43:46.083Z,74.60
2018-02-20T07:46:12.949Z,74.40
2018-02-20T07:48:39.903Z,74.30
2018-02-20T07:51:06.764Z,74.30
2018-02-20T07:53:33.653Z,74.30
2018-02-20T07:56:00.597Z,74.20
2018-02-20T07:58:27.539Z,74.30
2018-02-20T08:00:54.399Z,74.20
2018-02-20T08:03:21.282Z,74.00
2018-02-20T08:05:48.213Z,73.70
2018-02-20T08:08:15.126Z,73.20
2018-02-20T08:10:42.021Z,73.10
2018-02-20T08:13:08.880Z,72.90
2018-02-20T08:15:35.761Z,72.60
2018-02-20T08:18:02.606Z,72.60
2018-02-20T08:20:29.553Z,72.40
2018-02-20T08:22:56.524Z,72.20
2018-02-20T08:25:23.397Z,72.10
2018-02-20T08:27:50.326Z,72.30
2018-02-20T08:30:17.209Z,72.10
2018-02-20T08:32:44.182Z,72.30
2018-02-20T08:35:11.267Z,72.60
2018-02-20T08:37:38.525Z,72.70
2018-02-20T08:40:05.819Z,72.80
2018-02-20T08:42:32.715Z,72.80
2018-02-20T08:44:59.650Z,72.30
2018-02-20T08:47:26.613Z,72.10
2018-02-20T08:49:53.480Z,72.00
2018-02-20T08:52:20.430Z,72.20
2018-02-20T08:54:47.274Z,72.60
2018-02-20T08:57:14.194Z,72.90
2018-02-20T08:59:41.454Z,73.10
2018-02-20T09:02:08.704Z,73.20
2018-02-20T09:04:35.636Z,73.20
2018-02-20T09:07:02.473Z,72.80
2018-02-20T09:09:29.335Z,72.60
2018-02-20T09:11:56.288Z,72.60
2018-02-20T09:14:23.191Z,72.90
2018-02-20T09:16:50.072Z,73.10
2018-02-20T09:19:16.913Z,72.20
2018-02-20T09:21:43.857Z,70.20
2018-02-20T09:24:10.705Z,70.70
2018-02-20T09:26:37.745Z,71.80
2018-02-20T09:29:04.634Z,71.90
2018-02-20T09:31:31.570Z,71.60
2018-02-20T09:33:58.464Z,71.70
2018-02-20T09:36:25.393Z,70.90
2018-02-20T09:38:52.247Z,70.60
2018-02-20T09:41:19.153Z,70.20
2018-02-20T09:43:46.427Z,69.50
2018-02-20T09:46:13.776Z,69.00
2018-02-20T09:48:40.705Z,69.00
2018-02-20T09:51:07.742Z,68.40
2018-02-20T09:53:34.989Z,68.10
2018-02-20T09:56:02.278Z,68.50
2018-02-20T09:58:29.253Z,68.50
2018-02-20T10:00:56.126Z,68.40
2018-02-20T10:03:22.986Z,68.60
2018-02-20T10:05:49.851Z,68.80
2018-02-20T10:08:16.751Z,69.00
2018-02-20T10:10:44.050Z,69.20
2018-02-20T10:13:10.929Z,69.20
2018-02-20T10:15:37.875Z,69.20
2018-02-20T10:18:04.729Z,68.90
2018-02-20T10:20:31.606Z,69.10
2018-02-20T10:22:58.532Z,68.70
2018-02-20T10:25:25.404Z,68.80
2018-02-20T10:27:52.249Z,69.40
2018-02-20T10:30:19.216Z,69.10
2018-02-20T10:32:46.069Z,68.40
2018-02-20T10:35:13.034Z,68.00
2018-02-20T10:37:39.907Z,67.90
2018-02-20T10:40:06.762Z,67.80
2018-02-20T10:42:33.638Z,68.00
2018-02-20T10:45:00.513Z,67.80
2018-02-20T10:47:27.779Z,66.40
2018-02-20T10:49:55.091Z,65.60
2018-02-20T10:52:21.952Z,65.60
2018-02-20T10:54:48.846Z,66.30
2018-02-20T10:57:15.713Z,67.10
2018-02-20T10:59:43.044Z,65.80
2018-02-20T11:02:09.922Z,65.80
2018-02-20T11:04:36.817Z,65.20
2018-02-20T11:07:03.786Z,64.10
2018-02-20T11:09:30.622Z,63.60
2018-02-20T11:11:57.885Z,64.00
2018-02-20T11:14:25.158Z,63.70
2018-02-20T11:16:52.475Z,63.60
2018-02-20T11:19:19.524Z,63.60
2018-02-20T11:21:46.419Z,63.30
2018-02-20T11:24:13.749Z,63.70
2018-02-20T11:26:40.612Z,63.70
2018-02-20T11:29:07.504Z,64.10
2018-02-20T11:31:34.445Z,63.30
2018-02-20T11:34:01.318Z,63.20
2018-02-20T11:36:28.178Z,62.80
2018-02-20T11:38:55.090Z,63.50
2018-02-20T11:41:21.956Z,63.70
2018-02-20T11:43:48.891Z,63.40
2018-02-20T11:46:15.840Z,63.40
2018-02-20T11:48:43.154Z,63.90
2018-02-20T11:51:10.034Z,63.90
2018-02-20T11:53:36.873Z,63.10
2018-02-20T11:56:03.819Z,63.20
2018-02-20T11:58:30.720Z,63.30
2018-02-20T12:00:57.581Z,63.40
2018-02-20T12:03:24.902Z,63.90
2018-02-20T12:05:51.789Z,63.90
2018-02-20T12:08:18.657Z,63.90
2018-02-20T12:10:45.557Z,63.50
2018-02-20T12:13:12.432Z,63.20
2018-02-20T12:15:39.381Z,62.70
2018-02-20T12:18:06.225Z,61.40
2018-02-20T12:20:33.210Z,62.50
2018-02-20T12:23:00.161Z,62.30
2018-02-20T12:25:27.205Z,62.50
2018-02-20T12:27:54.452Z,63.60
2018-02-20T12:30:21.757Z,63.20
2018-02-20T12:32:48.609Z,63.20
2018-02-20T12:35:15.565Z,63.20
2018-02-20T12:37:42.460Z,62.60
2018-02-20T12:40:09.386Z,62.70
2018-02-20T12:42:36.348Z,61.80
2018-02-20T12:45:03.210Z,62.20
2018-02-20T12:47:30.154Z,62.70
2018-02-20T12:49:57.023Z,61.70
2018-02-20T12:52:23.989Z,61.90
2018-02-20T12:54:50.854Z,61.90
2018-02-20T12:57:17.743Z,61.50
2018-02-20T12:59:44.859Z,60.90
2018-02-20T13:02:11.800Z,61.30
2018-02-20T13:04:38.637Z,60.60
2018-02-20T13:07:05.941Z,61.30
2018-02-20T13:09:32.803Z,61.40
2018-02-20T13:11:59.651Z,61.80
2018-02-20T13:14:26.597Z,61.80
2018-02-20T13:16:53.882Z,62.60
2018-02-20T13:19:20.761Z,62.60
2018-02-20T13:21:47.756Z,62.60
2018-02-20T13:24:15.082Z,64.00
2018-02-20T13:26:41.958Z,64.00
2018-02-20T13:29:08.838Z,64.10
2018-02-20T13:31:36.157Z,63.40
2018-02-20T13:34:03.029Z,63.30
2018-02-20T13:36:29.969Z,63.20
2018-02-20T13:38:56.923Z,62.90
2018-02-20T13:41:23.883Z,63.10
2018-02-20T13:43:50.737Z,63.10
2018-02-20T13:46:17.693Z,62.40
2018-02-20T13:48:44.743Z,63.10
2018-02-20T13:51:11.721Z,63.30
2018-02-20T13:53:38.673Z,63.10
2018-02-20T13:56:05.537Z,62.90
2018-02-20T13:58:32.400Z,63.20
2018-02-20T14:00:59.284Z,63.00
2018-02-20T14:03:26.157Z,62.70
2018-02-20T14:05:53.472Z,62.80
2018-02-20T14:08:20.339Z,62.80
2018-02-20T14:10:47.216Z,62.20
2018-02-20T14:13:14.146Z,61.50
2018-02-20T14:15:41.531Z,61.30
2018-02-20T14:18:08.440Z,60.50
2018-02-20T14:20:35.317Z,60.00
2018-02-20T14:23:02.168Z,60.90
2018-02-20T14:25:29.050Z,62.00
2018-02-20T14:27:55.913Z,63.00
2018-02-20T14:30:22.765Z,63.90
2018-02-20T14:32:49.718Z,64.10
2018-02-20T14:35:16.614Z,63.90
2018-02-20T14:37:43.554Z,64.20
2018-02-20T14:40:10.401Z,63.40
2018-02-20T14:42:37.345Z,62.90
2018-02-20T14:45:04.249Z,60.20
2018-02-20T14:47:32.391Z,60.30
2018-02-20T14:49:59.349Z,60.30
2018-02-20T14:52:26.237Z,60.80
2018-02-20T14:54:53.250Z,59.90
2018-02-20T14:57:20.089Z,60.00
2018-02-20T14:59:47.365Z,60.30
2018-02-20T15:02:14.249Z,60.30
2018-02-20T15:04:41.141Z,60.00
2018-02-20T15:07:07.993Z,60.10
2018-02-20T15:09:34.924Z,60.20
2018-02-20T15:12:01.781Z,60.30
2018-02-20T15:14:28.733Z,60.10
2018-02-20T15:16:55.585Z,59.90
2018-02-20T15:19:22.491Z,59.70
2018-02-20T15:21:49.411Z,59.50
2018-02-20T15:24:16.280Z,59.90
2018-02-20T15:26:43.165Z,60.00
2018-02-20T15:29:10.033Z,59.80
2018-02-20T15:31:37.345Z,60.50
2018-02-20T15:34:04.193Z,60.40
2018-02-20T15:36:31.166Z,62.10
2018-02-20T15:38:58.127Z,62.80
2018-02-20T15:41:24.991Z,63.80
2018-02-20T15:43:51.944Z,64.60
2018-02-20T15:46:18.798Z,63.20
2018-02-20T15:48:45.765Z,63.30
2018-02-20T15:51:12.751Z,63.50
2018-02-20T15:53:39.664Z,63.20
2018-02-20T15:56:06.585Z,62.80
2018-02-20T15:58:33.825Z,61.50
2018-02-20T16:01:00.787Z,61.50
2018-02-20T16:03:27.709Z,59.20
2018-02-20T16:05:54.597Z,58.20
2018-02-20T16:08:21.511Z,58.60
2018-02-20T16:10:48.782Z,59.40
2018-02-20T16:13:15.716Z,59.40
2018-02-20T16:15:43.135Z,59.40
2018-02-20T16:18:09.998Z,59.40
2018-02-20T16:20:36.853Z,60.10
2018-02-20T16:23:03.738Z,60.50
2018-02-20T16:25:30.639Z,60.50
2018-02-20T16:27:57.501Z,61.20
2018-02-20T16:30:24.478Z,60.70
2018-02-20T16:32:51.325Z,61.90
2018-02-20T16:35:18.211Z,61.80
2018-02-20T16:37:45.248Z,63.40
2018-02-20T16:40:12.197Z,63.60
2018-02-20T16:42:39.070Z,63.50
2018-02-20T16:45:06.017Z,63.70
2018-02-20T16:47:32.970Z,63.20
2018-02-20T16:49:59.846Z,62.70
2018-02-20T16:52:26.791Z,63.30
2018-02-20T16:54:53.751Z,63.80
2018-02-20T16:57:20.697Z,63.50
2018-02-20T16:59:47.586Z,63.50
2018-02-20T17:02:14.548Z,63.70
2018-02-20T17:04:41.495Z,63.40
2018-02-20T17:07:09.245Z,63.60
2018-02-20T17:09:36.160Z,64.00
2018-02-20T17:12:03.015Z,63.60
2018-02-20T17:14:29.867Z,64.30
2018-02-20T17:16:56.735Z,63.30
2018-02-20T17:19:23.626Z,63.30
2018-02-20T17:21:50.521Z,63.40
2018-02-20T17:24:17.491Z,63.70
2018-02-20T17:26:44.324Z,63.70
2018-02-20T17:29:11.204Z,63.80
2018-02-20T17:31:38.169Z,63.90
2018-02-20T17:34:05.038Z,64.50
2018-02-20T17:36:31.909Z,64.50
2018-02-20T17:38:58.757Z,64.80
2018-02-20T17:41:25.760Z,64.30
2018-02-20T17:43:52.707Z,64.10
2018-02-20T17:46:19.588Z,64.40
2018-02-20T17:48:46.551Z,65.00
2018-02-20T17:51:13.519Z,65.20
2018-02-20T17:53:40.476Z,65.00
2018-02-20T17:56:07.409Z,65.10
2018-02-20T17:58:34.295Z,64.80
2018-02-20T18:01:01.334Z,65.00
2018-02-20T18:03:28.184Z,64.90
2018-02-20T18:05:55.162Z,65.00
2018-02-20T18:08:22.152Z,65.20
2018-02-20T18:10:49.031Z,65.20
2018-02-20T18:13:16.309Z,65.30
2018-02-20T18:15:43.590Z,65.30
2018-02-20T18:18:10.452Z,65.30
2018-02-20T18:20:37.321Z,65.40
2018-02-20T18:23:04.277Z,65.20
2018-02-20T18:25:31.177Z,65.50
2018-02-20T18:27:58.054Z,65.50
2018-02-20T18:30:25.300Z,65.50
2018-02-20T18:32:52.175Z,65.50
2018-02-20T18:35:19.427Z,65.40
2018-02-20T18:37:46.306Z,65.40
2018-02-20T18:40:13.703Z,65.00
2018-02-20T18:42:40.574Z,65.00
2018-02-20T18:45:07.530Z,65.20
2018-02-20T18:47:34.488Z,64.90
2018-02-20T18:50:01.347Z,64.80
2018-02-20T18:52:28.284Z,64.70
2018-02-20T18:54:55.555Z,64.30
2018-02-20T18:57:22.421Z,64.30
2018-02-20T18:59:49.284Z,64.30
2018-02-20T19:02:16.157Z,64.40
2018-02-20T19:04:43.015Z,64.20
2018-02-20T19:07:09.901Z,64.00
2018-02-20T19:09:36.749Z,64.00
2018-02-20T19:12:03.627Z,64.10
2018-02-20T19:14:30.927Z,64.30
2018-02-20T19:16:57.785Z,64.30
2018-02-20T19:19:24.779Z,64.20
2018-02-20T19:21:51.686Z,64.20
2018-02-20T19:24:18.515Z,64.10
2018-02-20T19:26:45.773Z,64.00
2018-02-20T19:29:12.628Z,64.00
2018-02-20T19:31:39.548Z,63.90
2018-02-20T19:34:06.401Z,64.20
2018-02-20T19:36:33.269Z,64.30
2018-02-20T19:39:00.117Z,64.50
2018-02-20T19:41:26.986Z,64.30
2018-02-20T19:43:53.922Z,63.80
2018-02-20T19:46:20.816Z,63.40
2018-02-20T19:48:47.678Z,63.60
2018-02-20T19:51:14.645Z,63.40
2018-02-20T19:53:41.560Z,63.60
2018-02-20T19:56:08.437Z,63.80
2018-02-20T19:58:35.386Z,64.20
2018-02-20T20:01:02.340Z,63.90
2018-02-20T20:03:29.259Z,64.30
2018-02-20T20:05:56.517Z,65.50
2018-02-20T20:08:23.761Z,66.30
2018-02-20T20:10:50.654Z,66.30
2018-02-20T20:13:17.982Z,66.90
2018-02-20T20:15:44.922Z,66.90
2018-02-20T20:18:11.797Z,66.30
2018-02-20T20:20:38.662Z,66.20
2018-02-20T20:23:05.585Z,66.20
2018-02-20T20:28:09.041Z,66.70
2018-02-20T20:30:35.900Z,66.90
2018-02-20T20:33:02.848Z,66.80
2018-02-20T20:35:29.709Z,66.80
2018-02-20T20:37:56.566Z,66.80
2018-02-20T20:40:23.420Z,66.90
2018-02-20T20:42:50.289Z,66.10
2018-02-20T20:45:17.237Z,66.40
2018-02-20T20:47:44.141Z,66.60
2018-02-20T20:50:11.386Z,66.60
2018-02-20T20:52:38.371Z,66.60
2018-02-20T20:55:05.276Z,66.20
2018-02-20T20:57:32.148Z,66.40
2018-02-20T20:59:59.018Z,66.20
2018-02-20T21:02:25.896Z,65.90
2018-02-20T21:04:52.810Z,65.40
2018-02-20T21:07:19.696Z,65.80
2018-02-20T21:09:46.588Z,66.00
2018-02-20T21:12:13.472Z,66.20
2018-02-20T21:14:40.330Z,65.70
2018-02-20T21:17:07.211Z,65.80
2018-02-20T21:19:34.061Z,65.60
2018-02-20T21:22:00.917Z,65.20
2018-02-20T21:24:27.793Z,65.30
2018-02-20T21:26:54.730Z,65.20
2018-02-20T21:29:23.255Z,65.20
2018-02-20T21:31:50.217Z,65.40
2018-02-20T21:34:17.150Z,65.60
2018-02-20T21:36:44.044Z,65.80
2018-02-20T21:39:11.289Z,65.60
2018-02-20T21:41:38.219Z,65.60
2018-02-20T21:44:05.094Z,65.40
2018-02-20T21:46:31.969Z,65.80
2018-02-20T21:48:58.869Z,66.00
2018-02-20T21:51:26.109Z,66.30
2018-02-20T21:53:53.395Z,66.50
2018-02-20T21:56:20.312Z,66.50
2018-02-20T21:58:47.175Z,66.70
2018-02-20T22:01:14.123Z,66.80
2018-02-20T22:03:40.981Z,67.30
2018-02-20T22:06:07.858Z,67.50
2018-02-20T22:08:35.175Z,67.60
2018-02-20T22:11:02.042Z,67.60
2018-02-20T22:13:28.907Z,67.10
2018-02-20T22:15:55.856Z,67.70
2018-02-20T22:18:22.916Z,67.30
2018-02-20T22:20:49.778Z,67.90
2018-02-20T22:23:16.731Z,67.60
2018-02-20T22:25:43.620Z,67.60
2018-02-20T22:28:10.486Z,67.50
2018-02-20T22:30:37.413Z,67.50
2018-02-20T22:33:04.276Z,67.60
2018-02-20T22:35:31.129Z,67.60
2018-02-20T22:37:58.072Z,67.20
2018-02-20T22:40:24.949Z,66.70
2018-02-20T22:42:51.797Z,66.70
2018-02-20T22:45:18.771Z,66.40
2018-02-20T22:47:45.754Z,66.60
2018-02-20T22:50:12.621Z,66.70
2018-02-20T22:52:39.534Z,67.10
2018-02-20T22:55:06.396Z,66.90
2018-02-20T22:57:33.270Z,66.90
2018-02-20T23:00:00.155Z,66.40
2018-02-20T23:02:27.032Z,66.60
2018-02-20T23:04:53.924Z,67.10
2018-02-20T23:07:20.781Z,67.10
2018-02-20T23:09:47.735Z,67.00
2018-02-20T23:12:14.648Z,66.80
2018-02-20T23:14:41.505Z,66.80
2018-02-20T23:17:08.818Z,66.70
2018-02-20T23:19:35.745Z,66.70
2018-02-20T23:22:03.051Z,66.80
2018-02-20T23:24:29.904Z,66.90
2018-02-20T23:26:56.954Z,66.50
2018-02-20T23:29:23.916Z,66.30
2018-02-20T23:31:50.762Z,66.20
2018-02-20T23:34:17.928Z,66.10
2018-02-20T23:36:44.885Z,65.60
2018-02-20T23:39:11.795Z,66.10
2018-02-20T23:41:38.725Z,66.40
2018-02-20T23:44:05.605Z,66.30
2018-02-20T23:46:32.453Z,66.20
2018-02-20T23:48:59.313Z,66.20
2018-02-20T23:51:26.252Z,65.90
2018-02-20T23:53:53.104Z,65.80
2018-02-20T23:56:20.079Z,66.10
2018-02-20T23:58:47.033Z,66.10
